createdAt,value
2018-05-24T00:02:17.459Z,15.47
2018-05-24T00:04:46.103Z,11.50
2018-05-24T00:07:14.384Z,20.30
2018-05-24T00:09:42.016Z,11.47
2018-05-24T00:12:09.529Z,13.63
2018-05-24T00:14:37.280Z,15.67
2018-05-24T00:17:05.577Z,15.40
2018-05-24T00:19:33.864Z,13.70
2018-05-24T00:22:01.782Z,13.60
2018-05-24T00:24:29.305Z,15.57
2018-05-24T00:26:56.867Z,13.17
2018-05-24T00:29:24.755Z,14.93
2018-05-24T00:31:52.353Z,11.97
2018-05-24T00:34:19.908Z,13.93
2018-05-24T00:36:47.428Z,13.67
2018-05-24T00:39:14.934Z,14.60
2018-05-24T00:41:43.962Z,14.97
2018-05-24T00:44:12.610Z,16.80
2018-05-24T00:46:41.270Z,16.03
2018-05-24T00:49:08.770Z,15.23
2018-05-24T00:51:37.058Z,12.93
2018-05-24T00:54:05.322Z,21.43
2018-05-24T00:56:33.596Z,12.77
2018-05-24T00:59:01.113Z,14.00
2018-05-24T01:01:29.383Z,14.37
2018-05-24T01:03:56.901Z,14.77
2018-05-24T01:06:25.170Z,13.73
2018-05-24T01:08:53.450Z,12.67
2018-05-24T01:11:21.708Z,16.70
2018-05-24T01:13:49.621Z,14.03
2018-05-24T01:16:17.186Z,16.57
2018-05-24T01:18:45.855Z,12.67
2018-05-24T01:21:14.523Z,14.90
2018-05-24T01:23:42.037Z,14.60
2018-05-24T01:26:10.336Z,18.60
2018-05-24T01:28:38.247Z,14.50
2018-05-24T01:31:05.775Z,16.17
2018-05-24T01:33:34.061Z,19.30
2018-05-24T01:36:02.003Z,19.37
2018-05-24T01:38:29.505Z,16.40
2018-05-24T01:40:57.891Z,17.60
2018-05-24T01:43:25.399Z,19.33
2018-05-24T01:45:53.032Z,18.30
2018-05-24T01:48:20.545Z,14.93
2018-05-24T01:50:48.809Z,14.87
2018-05-24T01:53:16.317Z,17.70
2018-05-24T01:55:43.821Z,18.13
2018-05-24T01:58:11.365Z,18.33
2018-05-24T02:00:38.882Z,15.33
2018-05-24T02:03:06.783Z,14.73
2018-05-24T02:05:35.445Z,21.40
2018-05-24T02:08:02.958Z,16.53
2018-05-24T02:10:30.473Z,19.20
2018-05-24T02:12:57.982Z,21.60
2018-05-24T02:15:25.506Z,17.60
2018-05-24T02:17:53.404Z,19.30
2018-05-24T02:20:21.678Z,18.27
2018-05-24T02:22:49.216Z,15.57
2018-05-24T02:25:16.780Z,17.17
2018-05-24T02:27:45.649Z,18.30
2018-05-24T02:30:13.166Z,20.50
2018-05-24T02:32:41.460Z,20.60
2018-05-24T02:35:09.384Z,19.80
2018-05-24T02:37:36.925Z,18.50
2018-05-24T02:40:04.826Z,19.60
2018-05-24T02:42:33.131Z,21.97
2018-05-24T02:45:00.644Z,22.50
2018-05-24T02:47:28.150Z,22.03
2018-05-24T02:49:55.679Z,18.23
2018-05-24T02:52:23.206Z,18.77
2018-05-24T02:54:52.241Z,19.90
2018-05-24T02:57:20.128Z,20.90
2018-05-24T02:59:48.103Z,16.13
2018-05-24T03:02:16.378Z,17.90
2018-05-24T03:04:44.701Z,17.63
2018-05-24T03:07:12.219Z,17.70
2018-05-24T03:09:39.747Z,17.07
2018-05-24T03:12:07.268Z,15.80
2018-05-24T03:14:34.807Z,17.17
2018-05-24T03:17:04.157Z,16.23
2018-05-24T03:19:31.667Z,21.00
2018-05-24T03:21:59.224Z,17.83
2018-05-24T03:24:27.872Z,23.37
2018-05-24T03:26:55.391Z,19.40
2018-05-24T03:29:22.909Z,21.63
2018-05-24T03:31:51.195Z,17.80
2018-05-24T03:34:19.104Z,21.20
2018-05-24T03:36:46.616Z,17.80
2018-05-24T03:39:14.899Z,19.00
2018-05-24T03:41:42.476Z,24.40
2018-05-24T03:44:11.517Z,18.63
2018-05-24T03:46:40.373Z,20.40
2018-05-24T03:49:08.300Z,20.40
2018-05-24T03:51:37.179Z,20.80
2018-05-24T03:54:06.035Z,21.73
2018-05-24T03:56:33.945Z,28.97
2018-05-24T03:59:14.139Z,24.70
2018-05-24T04:01:53.503Z,19.37
2018-05-24T04:04:33.261Z,26.50
2018-05-24T04:07:02.273Z,24.93
2018-05-24T04:09:30.539Z,21.63
2018-05-24T04:11:58.072Z,22.20
2018-05-24T04:14:25.572Z,27.20
2018-05-24T04:16:53.914Z,20.87
2018-05-24T04:19:22.251Z,31.17
2018-05-24T04:21:49.772Z,22.97
2018-05-24T04:24:17.273Z,21.63
2018-05-24T04:26:44.802Z,24.43
2018-05-24T04:29:12.723Z,25.93
2018-05-24T04:31:40.619Z,20.13
2018-05-24T04:34:08.157Z,24.03
2018-05-24T04:36:35.673Z,25.07
2018-05-24T04:39:03.596Z,24.10
2018-05-24T04:41:32.498Z,23.80
2018-05-24T04:44:00.032Z,21.97
2018-05-24T04:46:28.385Z,28.27
2018-05-24T04:48:55.932Z,20.63
2018-05-24T04:51:23.445Z,21.07
2018-05-24T04:53:50.953Z,24.33
2018-05-24T04:56:18.882Z,29.60
2018-05-24T04:58:46.401Z,22.40
2018-05-24T05:01:13.927Z,17.20
2018-05-24T05:03:42.211Z,22.10
2018-05-24T05:06:09.734Z,20.73
2018-05-24T05:08:37.253Z,21.73
2018-05-24T05:11:05.529Z,19.90
2018-05-24T05:13:33.557Z,21.53
2018-05-24T05:16:01.742Z,24.23
2018-05-24T05:18:30.011Z,21.30
2018-05-24T05:20:58.279Z,24.10
2018-05-24T05:23:26.369Z,23.50
2018-05-24T05:25:53.883Z,23.00
2018-05-24T05:28:21.825Z,26.30
2018-05-24T05:30:49.733Z,23.73
2018-05-24T05:33:17.245Z,21.97
2018-05-24T05:35:45.151Z,24.17
2018-05-24T05:38:14.047Z,23.73
2018-05-24T05:40:41.542Z,24.70
2018-05-24T05:43:09.828Z,21.57
2018-05-24T05:45:37.738Z,25.00
2018-05-24T05:48:05.274Z,25.70
2018-05-24T05:50:32.792Z,30.30
2018-05-24T05:53:01.077Z,28.10
2018-05-24T05:55:29.047Z,36.17
2018-05-24T05:57:57.342Z,27.20
2018-05-24T06:00:25.606Z,34.07
2018-05-24T06:02:53.874Z,32.43
2018-05-24T06:05:22.172Z,28.67
2018-05-24T06:07:49.676Z,31.57
2018-05-24T06:10:18.474Z,29.13
2018-05-24T06:12:46.011Z,28.73
2018-05-24T06:15:13.610Z,29.43
2018-05-24T06:17:41.068Z,35.50
2018-05-24T06:20:09.360Z,32.47
2018-05-24T06:22:37.645Z,31.10
2018-05-24T06:25:05.146Z,38.27
2018-05-24T06:27:32.686Z,33.07
2018-05-24T06:30:00.596Z,31.23
2018-05-24T06:32:29.610Z,31.23
2018-05-24T06:34:57.898Z,36.27
2018-05-24T06:37:25.420Z,28.63
2018-05-24T06:39:52.928Z,33.20
2018-05-24T06:42:21.628Z,31.90
2018-05-24T06:44:49.151Z,35.97
2018-05-24T06:47:17.454Z,36.67
2018-05-24T06:49:45.166Z,29.00
2018-05-24T06:52:12.686Z,30.93
2018-05-24T06:54:40.240Z,33.50
2018-05-24T06:57:07.752Z,26.27
2018-05-24T06:59:35.264Z,28.00
2018-05-24T07:02:03.547Z,35.30
2018-05-24T07:04:31.071Z,30.60
2018-05-24T07:06:59.367Z,32.17
2018-05-24T07:09:26.899Z,44.40
2018-05-24T07:11:54.798Z,31.20
2018-05-24T07:14:22.322Z,29.83
2018-05-24T07:16:49.875Z,28.10
2018-05-24T07:19:17.383Z,32.77
2018-05-24T07:21:44.914Z,35.03
2018-05-24T07:24:13.191Z,30.87
2018-05-24T07:26:41.120Z,33.37
2018-05-24T07:29:08.625Z,30.50
2018-05-24T07:31:36.905Z,31.43
2018-05-24T07:34:04.422Z,29.20
2018-05-24T07:36:31.938Z,29.53
2018-05-24T07:38:59.463Z,31.70
2018-05-24T07:41:27.743Z,31.13
2018-05-24T07:43:56.008Z,24.10
2018-05-24T07:46:24.365Z,28.93
2018-05-24T07:48:51.877Z,25.17
2018-05-24T07:51:19.773Z,28.30
2018-05-24T07:53:47.283Z,27.20
2018-05-24T07:56:15.564Z,23.73
2018-05-24T07:58:43.118Z,30.43
2018-05-24T08:01:11.394Z,24.43
2018-05-24T08:03:39.694Z,19.90
2018-05-24T08:06:08.211Z,20.13
2018-05-24T08:08:36.218Z,18.73
2018-05-24T08:11:03.676Z,19.93
2018-05-24T08:13:31.957Z,20.33
2018-05-24T08:16:00.229Z,19.40
2018-05-24T08:18:28.126Z,17.33
2018-05-24T08:20:55.645Z,16.50
2018-05-24T08:23:23.190Z,16.10
2018-05-24T08:25:50.727Z,16.67
2018-05-24T08:28:18.617Z,20.47
2018-05-24T08:30:46.138Z,16.00
2018-05-24T08:33:13.652Z,20.10
2018-05-24T08:35:41.185Z,17.27
2018-05-24T08:38:09.461Z,16.90
2018-05-24T08:40:37.091Z,18.37
2018-05-24T08:43:05.317Z,20.83
2018-05-24T08:45:32.823Z,18.87
2018-05-24T08:48:00.339Z,16.90
2018-05-24T08:50:27.857Z,15.70
2018-05-24T08:52:55.367Z,14.50
2018-05-24T08:55:23.646Z,16.70
2018-05-24T08:57:51.944Z,13.30
2018-05-24T09:00:19.457Z,16.20
2018-05-24T09:02:46.966Z,13.90
2018-05-24T09:05:14.875Z,15.60
2018-05-24T09:07:42.660Z,17.00
2018-05-24T09:10:10.198Z,15.93
2018-05-24T09:12:37.721Z,16.27
2018-05-24T09:15:05.240Z,14.63
2018-05-24T09:17:33.509Z,15.37
2018-05-24T09:20:01.794Z,15.40
2018-05-24T09:22:29.302Z,15.90
2018-05-24T09:24:56.837Z,16.30
2018-05-24T09:27:24.734Z,16.70
2018-05-24T09:29:53.381Z,16.33
2018-05-24T09:32:21.663Z,16.67
2018-05-24T09:34:49.584Z,16.37
2018-05-24T09:37:17.121Z,15.37
2018-05-24T09:39:44.627Z,13.70
2018-05-24T09:42:12.244Z,14.13
2018-05-24T09:44:39.700Z,16.27
2018-05-24T09:47:07.227Z,15.00
2018-05-24T09:49:35.506Z,13.47
2018-05-24T09:52:03.022Z,13.47
2018-05-24T09:54:30.557Z,14.93
2018-05-24T09:56:58.068Z,16.30
2018-05-24T09:59:26.366Z,14.33
2018-05-24T10:01:53.877Z,16.20
2018-05-24T10:04:22.902Z,15.87
2018-05-24T10:06:51.187Z,14.30
2018-05-24T10:09:19.468Z,13.73
2018-05-24T10:11:47.008Z,15.93
2018-05-24T10:14:15.399Z,14.20
2018-05-24T10:16:43.690Z,13.53
2018-05-24T10:19:11.203Z,13.20
2018-05-24T10:21:40.090Z,13.70
2018-05-24T10:24:07.606Z,13.93
2018-05-24T10:26:35.112Z,14.50
2018-05-24T10:29:02.642Z,13.20
2018-05-24T10:31:30.147Z,16.73
2018-05-24T10:33:58.062Z,12.53
2018-05-24T10:36:27.294Z,11.90
2018-05-24T10:38:56.314Z,13.47
2018-05-24T10:41:24.607Z,13.93
2018-05-24T10:43:52.127Z,15.43
2018-05-24T10:46:19.644Z,13.87
2018-05-24T10:48:47.179Z,11.77
2018-05-24T10:51:15.517Z,12.83
2018-05-24T10:53:42.978Z,14.67
2018-05-24T10:56:11.334Z,12.77
2018-05-24T10:58:39.250Z,11.03
2018-05-24T11:01:07.538Z,12.10
2018-05-24T11:03:35.813Z,13.60
2018-05-24T11:06:04.094Z,15.63
2018-05-24T11:08:31.616Z,13.50
2018-05-24T11:10:59.912Z,10.97
2018-05-24T11:13:28.192Z,13.27
2018-05-24T11:15:57.314Z,10.77
2018-05-24T11:18:25.215Z,11.00
2018-05-24T11:20:53.146Z,10.47
2018-05-24T11:23:20.716Z,10.67
2018-05-24T11:25:48.257Z,11.20
2018-05-24T11:28:16.540Z,21.90
2018-05-24T11:30:44.048Z,11.80
2018-05-24T11:33:11.562Z,11.80
2018-05-24T11:35:39.073Z,13.90
2018-05-24T11:38:06.605Z,12.50
2018-05-24T11:40:34.113Z,12.43
2018-05-24T11:43:02.443Z,11.17
2018-05-24T11:45:29.960Z,10.93
2018-05-24T11:47:58.236Z,11.07
2018-05-24T11:50:26.515Z,15.00
2018-05-24T11:52:54.804Z,13.40
2018-05-24T11:55:22.737Z,15.37
2018-05-24T11:57:50.648Z,14.60
2018-05-24T12:00:18.175Z,14.67
2018-05-24T12:02:46.448Z,11.27
2018-05-24T12:05:14.724Z,18.27
2018-05-24T12:07:42.238Z,12.63
2018-05-24T12:10:09.763Z,14.23
2018-05-24T12:12:37.690Z,15.67
2018-05-24T12:15:05.192Z,12.73
2018-05-24T12:17:33.477Z,13.50
2018-05-24T12:20:01.007Z,18.00
2018-05-24T12:22:28.530Z,16.83
2018-05-24T12:24:56.074Z,14.03
2018-05-24T12:27:23.582Z,13.63
2018-05-24T12:29:51.502Z,13.87
2018-05-24T12:32:19.016Z,19.80
2018-05-24T12:34:46.955Z,15.00
2018-05-24T12:37:15.244Z,18.30
2018-05-24T12:39:42.748Z,17.10
2018-05-24T12:42:10.248Z,24.47
2018-05-24T12:44:37.782Z,17.73
2018-05-24T12:47:06.069Z,24.17
2018-05-24T12:49:33.994Z,20.53
2018-05-24T12:52:02.284Z,18.93
2018-05-24T12:54:29.797Z,19.83
2018-05-24T12:56:57.327Z,20.40
2018-05-24T12:59:24.824Z,22.70
2018-05-24T13:01:53.114Z,24.87
2018-05-24T13:04:21.018Z,21.17
2018-05-24T13:06:48.923Z,22.30
2018-05-24T13:09:17.533Z,24.07
2018-05-24T13:11:45.815Z,19.73
2018-05-24T13:14:14.090Z,20.13
2018-05-24T13:16:42.371Z,20.90
2018-05-24T13:19:10.659Z,20.57
2018-05-24T13:21:38.566Z,18.17
2018-05-24T13:24:06.590Z,19.80
2018-05-24T13:26:34.996Z,18.83
2018-05-24T13:29:02.543Z,21.97
2018-05-24T13:31:30.819Z,20.20
2018-05-24T13:33:59.851Z,22.40
2018-05-24T13:36:27.375Z,21.63
2018-05-24T13:38:54.911Z,18.30
2018-05-24T13:41:23.212Z,23.20
2018-05-24T13:43:50.731Z,18.97
2018-05-24T13:46:19.021Z,20.30
2018-05-24T13:48:47.300Z,25.57
2018-05-24T13:51:15.570Z,16.90
2018-05-24T13:53:43.096Z,16.63
2018-05-24T13:56:11.006Z,20.20
2018-05-24T13:58:39.286Z,16.40
2018-05-24T14:01:07.584Z,22.17
2018-05-24T14:03:35.099Z,22.93
2018-05-24T14:06:02.624Z,29.00
2018-05-24T14:08:30.130Z,19.50
2018-05-24T14:10:58.057Z,18.97
2018-05-24T14:13:25.563Z,19.43
2018-05-24T14:15:53.509Z,17.40
2018-05-24T14:18:21.779Z,16.43
2018-05-24T14:20:49.295Z,19.73
2018-05-24T14:23:16.835Z,23.73
2018-05-24T14:25:44.778Z,14.27
2018-05-24T14:28:12.304Z,13.63
2018-05-24T14:30:39.828Z,10.53
2018-05-24T14:33:07.350Z,16.73
2018-05-24T14:35:34.856Z,13.33
2018-05-24T14:38:02.412Z,15.10
2018-05-24T14:40:29.932Z,12.50
2018-05-24T14:42:57.446Z,13.33
2018-05-24T14:45:25.376Z,12.47
2018-05-24T14:47:57.594Z,4.17
2018-05-24T14:50:25.506Z,3.80
2018-05-24T14:52:53.412Z,4.83
2018-05-24T14:55:20.928Z,4.50
2018-05-24T14:57:48.436Z,6.73
2018-05-24T15:00:16.369Z,5.10
2018-05-24T15:02:44.640Z,5.73
2018-05-24T15:05:12.912Z,3.40
2018-05-24T15:07:40.443Z,6.63
2018-05-24T15:10:07.948Z,7.50
2018-05-24T15:12:35.914Z,6.10
2018-05-24T15:15:04.205Z,4.13
2018-05-24T15:17:31.758Z,4.30
2018-05-24T15:19:59.296Z,7.80
2018-05-24T15:22:26.842Z,5.17
2018-05-24T15:24:54.352Z,8.83
2018-05-24T15:27:22.277Z,5.27
2018-05-24T15:29:49.828Z,5.57
2018-05-24T15:32:17.326Z,4.47
2018-05-24T15:34:44.900Z,7.90
2018-05-24T15:37:12.406Z,6.67
2018-05-24T15:39:39.938Z,6.20
2018-05-24T15:42:09.548Z,8.53
2018-05-24T15:44:37.090Z,6.80
2018-05-24T15:47:04.600Z,7.20
2018-05-24T15:49:32.115Z,5.13
2018-05-24T15:51:59.615Z,3.63
2018-05-24T15:54:27.188Z,5.67
2018-05-24T15:56:55.461Z,4.37
2018-05-24T15:59:23.744Z,4.30
2018-05-24T16:01:52.034Z,9.90
2018-05-24T16:04:19.940Z,6.13
2018-05-24T16:06:47.454Z,3.93
2018-05-24T16:09:15.036Z,3.13
2018-05-24T16:11:42.562Z,9.60
2018-05-24T16:14:11.128Z,2.60
2018-05-24T16:16:39.069Z,5.77
2018-05-24T16:19:06.594Z,2.77
2018-05-24T16:21:34.892Z,4.80
2018-05-24T16:24:02.413Z,4.60
2018-05-24T16:26:30.689Z,8.67
2018-05-24T16:28:58.969Z,6.53
2018-05-24T16:31:27.252Z,5.83
2018-05-24T16:33:56.149Z,4.10
2018-05-24T16:36:23.651Z,8.80
2018-05-24T16:38:51.171Z,4.90
2018-05-24T16:41:18.709Z,6.60
2018-05-24T16:43:46.641Z,7.13
2018-05-24T16:46:14.151Z,5.80
2018-05-24T16:48:42.094Z,4.03
2018-05-24T16:51:09.585Z,3.23
2018-05-24T16:53:37.144Z,4.63
2018-05-24T16:56:05.444Z,3.03
2018-05-24T16:58:33.352Z,2.60
2018-05-24T17:01:00.874Z,4.00
2018-05-24T17:03:28.386Z,3.47
2018-05-24T17:05:56.670Z,4.10
2018-05-24T17:08:24.962Z,34.63
2018-05-24T17:10:52.490Z,5.40
2018-05-24T17:13:20.765Z,2.70
2018-05-24T17:15:49.855Z,5.10
2018-05-24T17:18:17.373Z,4.10
2018-05-24T17:20:46.274Z,2.97
2018-05-24T17:23:13.788Z,5.03
2018-05-24T17:25:42.068Z,3.67
2018-05-24T17:28:10.360Z,2.63
2018-05-24T17:30:37.866Z,4.30
2018-05-24T17:33:05.400Z,4.70
2018-05-24T17:35:33.545Z,6.13
2018-05-24T17:38:01.473Z,3.37
2018-05-24T17:40:28.990Z,6.50
2018-05-24T17:42:56.542Z,5.27
2018-05-24T17:45:24.080Z,9.00
2018-05-24T17:47:52.409Z,3.17
2018-05-24T17:50:19.954Z,3.23
2018-05-24T17:52:47.545Z,3.10
2018-05-24T17:55:15.049Z,4.53
2018-05-24T17:57:42.558Z,2.60
2018-05-24T18:00:10.465Z,7.27
2018-05-24T18:02:38.729Z,3.47
2018-05-24T18:05:06.293Z,6.23
2018-05-24T18:07:34.761Z,4.13
2018-05-24T18:10:02.706Z,10.30
2018-05-24T18:12:30.253Z,6.33
2018-05-24T18:14:59.032Z,5.77
2018-05-24T18:17:26.917Z,7.40
2018-05-24T18:19:54.456Z,3.93
2018-05-24T18:22:22.856Z,3.53
2018-05-24T18:24:51.888Z,6.60
2018-05-24T18:27:20.685Z,3.47
2018-05-24T18:29:49.004Z,3.67
2018-05-24T18:32:18.122Z,7.30
2018-05-24T18:34:46.415Z,5.50
2018-05-24T18:37:14.697Z,4.40
2018-05-24T18:39:43.374Z,11.70
2018-05-24T18:42:11.217Z,5.80
2018-05-24T18:44:39.163Z,4.77
2018-05-24T18:47:07.407Z,4.37
2018-05-24T18:49:35.685Z,5.43
2018-05-24T18:52:04.765Z,5.43
2018-05-24T18:54:34.119Z,4.97
2018-05-24T18:57:03.004Z,7.73
2018-05-24T18:59:31.863Z,3.93
2018-05-24T19:02:00.960Z,8.00
2018-05-24T19:04:28.482Z,4.43
2018-05-24T19:06:56.402Z,16.47
2018-05-24T19:09:24.706Z,5.33
2018-05-24T19:11:54.022Z,5.47
2018-05-24T19:14:23.130Z,6.20
2018-05-24T19:16:51.219Z,7.33
2018-05-24T19:19:21.155Z,6.07
2018-05-24T19:21:50.846Z,11.60
2018-05-24T19:24:18.392Z,9.00
2018-05-24T19:26:46.625Z,7.37
2018-05-24T19:29:16.211Z,5.77
2018-05-24T19:31:44.191Z,5.30
2018-05-24T19:34:13.225Z,8.63
2018-05-24T19:36:41.357Z,8.20
2018-05-24T19:39:08.881Z,8.50
2018-05-24T19:41:37.957Z,6.73
2018-05-24T19:44:05.487Z,6.53
2018-05-24T19:46:33.025Z,8.97
2018-05-24T19:49:00.573Z,9.33
2018-05-24T19:51:28.924Z,10.47
2018-05-24T19:53:58.251Z,30.00
2018-05-24T19:56:33.328Z,35.93
2018-05-24T19:59:00.863Z,23.33
2018-05-24T20:01:28.447Z,23.00
2018-05-24T20:03:57.757Z,10.07
2018-05-24T20:06:27.095Z,12.63
2018-05-24T20:08:55.035Z,6.70
2018-05-24T20:11:22.973Z,6.27
2018-05-24T20:13:50.874Z,6.57
2018-05-24T20:16:18.419Z,6.70
2018-05-24T20:18:45.983Z,8.43
2018-05-24T20:21:13.501Z,7.00
2018-05-24T20:23:42.023Z,7.17
2018-05-24T20:26:09.554Z,7.00
2018-05-24T20:28:37.486Z,6.77
2018-05-24T20:31:06.542Z,8.93
2018-05-24T20:33:34.067Z,8.80
2018-05-24T20:36:02.953Z,9.50
2018-05-24T20:38:31.298Z,10.40
2018-05-24T20:41:00.336Z,7.93
2018-05-24T20:43:29.112Z,6.90
2018-05-24T20:45:57.409Z,8.90
2018-05-24T20:48:25.706Z,8.63
2018-05-24T20:50:53.228Z,9.93
2018-05-24T20:53:21.816Z,8.57
2018-05-24T20:55:50.102Z,8.80
2018-05-24T20:58:19.140Z,16.17
2018-05-24T21:00:47.356Z,12.77
2018-05-24T21:03:15.678Z,9.47
2018-05-24T21:05:43.190Z,10.33
2018-05-24T21:08:11.469Z,9.30
2018-05-24T21:10:40.147Z,7.00
2018-05-24T21:13:09.205Z,9.50
2018-05-24T21:15:36.727Z,9.43
2018-05-24T21:18:04.314Z,10.83
2018-05-24T21:20:32.627Z,8.70
2018-05-24T21:23:00.942Z,11.10
2018-05-24T21:25:28.853Z,8.87
2018-05-24T21:27:57.728Z,8.43
2018-05-24T21:30:25.658Z,10.17
2018-05-24T21:32:53.567Z,11.27
2018-05-24T21:35:22.421Z,8.50
2018-05-24T21:37:50.739Z,9.03
2018-05-24T21:40:18.669Z,8.60
2018-05-24T21:42:46.198Z,9.63
2018-05-24T21:45:14.522Z,7.20
2018-05-24T21:47:42.418Z,9.30
2018-05-24T21:50:09.948Z,10.00
2018-05-24T21:52:37.853Z,11.33
2018-05-24T21:55:05.392Z,9.47
2018-05-24T21:57:34.259Z,10.80
2018-05-24T22:00:01.835Z,13.27
2018-05-24T22:02:29.736Z,9.30
2018-05-24T22:04:58.009Z,8.13
2018-05-24T22:07:25.549Z,10.00
2018-05-24T22:09:53.045Z,12.50
2018-05-24T22:12:20.558Z,13.17
2018-05-24T22:14:48.100Z,11.77
2018-05-24T22:17:15.644Z,8.87
2018-05-24T22:19:44.495Z,8.57
2018-05-24T22:22:12.009Z,10.07
2018-05-24T22:24:39.513Z,12.43
2018-05-24T22:27:07.032Z,19.20
2018-05-24T22:29:34.547Z,9.87
2018-05-24T22:32:03.409Z,9.33
2018-05-24T22:34:30.936Z,17.87
2018-05-24T22:36:58.464Z,12.03
2018-05-24T22:39:26.755Z,10.37
2018-05-24T22:41:54.679Z,12.23
2018-05-24T22:44:22.214Z,12.17
2018-05-24T22:46:50.109Z,12.93
2018-05-24T22:49:18.392Z,13.93
2018-05-24T22:51:45.889Z,13.73
2018-05-24T22:54:14.175Z,12.60
2018-05-24T22:56:42.844Z,13.47
2018-05-24T22:59:11.830Z,14.20
2018-05-24T23:01:40.835Z,12.60
2018-05-24T23:04:09.117Z,12.90
2018-05-24T23:06:37.953Z,14.67
2018-05-24T23:09:06.372Z,13.47
2018-05-24T23:11:34.650Z,14.57
2018-05-24T23:14:02.942Z,7.97
2018-05-24T23:16:30.850Z,7.90
2018-05-24T23:18:59.122Z,19.50
2018-05-24T23:21:27.415Z,8.67
2018-05-24T23:23:54.915Z,7.43
2018-05-24T23:26:23.234Z,12.70
2018-05-24T23:28:50.736Z,9.87
2018-05-24T23:31:18.354Z,11.37
2018-05-24T23:33:47.221Z,10.40
2018-05-24T23:36:15.118Z,9.50
2018-05-24T23:38:42.769Z,9.97
2018-05-24T23:41:11.050Z,7.37
2018-05-24T23:43:39.704Z,10.07
2018-05-24T23:46:07.614Z,9.70
2018-05-24T23:48:35.544Z,11.77
2018-05-24T23:51:03.125Z,8.20
2018-05-24T23:53:31.789Z,18.67
2018-05-24T23:56:00.052Z,11.27
2018-05-24T23:58:28.431Z,16.03
